sensor_id;sensor_type;location;lat;lon;timestamp;P1;durP1;ratioP1;P2;durP2;ratioP2
3819;SDS011;1925;51.356;9.530;2023-01-20T00:02:17;21.90;;;13.73;;
3819;SDS011;1925;51.356;9.530;2023-01-20T00:04:43;32.17;;;17.37;;
3819;SDS011;1925;51.356;9.530;2023-01-20T00:07:09;27.40;;;17.47;;
3819;SDS011;1925;51.356;9.530;2023-01-20T00:09:35;27.37;;;16.83;;
3819;SDS011;1925;51.356;9.530;2023-01-20T00:12:01;36.43;;;18.73;;
3819;SDS011;1925;51.356;9.530;2023-01-20T00:14:27;30.60;;;18.90;;
3819;SDS011;1925;51.356;9.530;2023-01-20T00:16:53;33.43;;;17.93;;
3819;SDS011;1925;51.356;9.530;2023-01-20T00:19:21;46.78;;;17.77;;
3819;SDS011;1925;51.356;9.530;2023-01-20T00:21:47;48.90;;;19.27;;
3819;SDS011;1925;51.356;9.530;2023-01-20T00:24:13;42.97;;;18.57;;
3819;SDS011;1925;51.356;9.530;2023-01-20T00:26:39;34.33;;;17.23;;
3819;SDS011;1925;51.356;9.530;2023-01-20T00:29:05;30.93;;;16.93;;
3819;SDS011;1925;51.356;9.530;2023-01-20T00:31:31;35.77;;;18.33;;
3819;SDS011;1925;51.356;9.530;2023-01-20T00:33:58;29.95;;;17.40;;
3819;SDS011;1925;51.356;9.530;2023-01-20T00:36:25;31.23;;;17.70;;
3819;SDS011;1925;51.356;9.530;2023-01-20T00:38:51;31.45;;;18.38;;
3819;SDS011;1925;51.356;9.530;2023-01-20T00:41:18;27.35;;;16.77;;
3819;SDS011;1925;51.356;9.530;2023-01-20T00:43:43;27.20;;;16.17;;
3819;SDS011;1925;51.356;9.530;2023-01-20T00:46:10;26.57;;;17.83;;
3819;SDS011;1925;51.356;9.530;2023-01-20T00:48:36;29.42;;;17.60;;
3819;SDS011;1925;51.356;9.530;2023-01-20T00:51:02;27.08;;;16.60;;
3819;SDS011;1925;51.356;9.530;2023-01-20T00:53:28;24.92;;;15.93;;
3819;SDS011;1925;51.356;9.530;2023-01-20T00:55:54;30.88;;;16.92;;
3819;SDS011;1925;51.356;9.530;2023-01-20T00:58:21;29.88;;;16.67;;
3819;SDS011;1925;51.356;9.530;2023-01-20T01:00:47;25.70;;;16.15;;
3819;SDS011;1925;51.356;9.530;2023-01-20T01:03:14;24.13;;;16.15;;
3819;SDS011;1925;51.356;9.530;2023-01-20T01:05:40;27.27;;;17.02;;
3819;SDS011;1925;51.356;9.530;2023-01-20T01:08:06;26.17;;;17.23;;
3819;SDS011;1925;51.356;9.530;2023-01-20T01:10:32;30.25;;;15.30;;
3819;SDS011;1925;51.356;9.530;2023-01-20T01:12:59;26.80;;;16.40;;
3819;SDS011;1925;51.356;9.530;2023-01-20T01:15:25;31.15;;;17.67;;
3819;SDS011;1925;51.356;9.530;2023-01-20T01:17:51;26.65;;;15.85;;
3819;SDS011;1925;51.356;9.530;2023-01-20T01:20:18;27.58;;;16.80;;
3819;SDS011;1925;51.356;9.530;2023-01-20T01:22:43;28.40;;;18.10;;
3819;SDS011;1925;51.356;9.530;2023-01-20T01:25:09;26.30;;;16.33;;
3819;SDS011;1925;51.356;9.530;2023-01-20T01:27:35;30.87;;;18.20;;
3819;SDS011;1925;51.356;9.530;2023-01-20T01:30:02;25.50;;;15.25;;
3819;SDS011;1925;51.356;9.530;2023-01-20T01:32:28;27.83;;;17.42;;
3819;SDS011;1925;51.356;9.530;2023-01-20T01:34:54;31.90;;;16.97;;
3819;SDS011;1925;51.356;9.530;2023-01-20T01:37:20;25.27;;;17.27;;
3819;SDS011;1925;51.356;9.530;2023-01-20T01:39:46;36.13;;;20.07;;
3819;SDS011;1925;51.356;9.530;2023-01-20T01:42:18;32.63;;;19.07;;
3819;SDS011;1925;51.356;9.530;2023-01-20T01:47:29;31.40;;;17.20;;
3819;SDS011;1925;51.356;9.530;2023-01-20T01:49:55;28.92;;;17.63;;
3819;SDS011;1925;51.356;9.530;2023-01-20T01:52:21;36.43;;;17.17;;
3819;SDS011;1925;51.356;9.530;2023-01-20T01:54:49;26.40;;;15.82;;
3819;SDS011;1925;51.356;9.530;2023-01-20T01:57:15;25.92;;;14.13;;
3819;SDS011;1925;51.356;9.530;2023-01-20T01:59:41;23.10;;;14.20;;
3819;SDS011;1925;51.356;9.530;2023-01-20T02:02:08;21.15;;;13.48;;
3819;SDS011;1925;51.356;9.530;2023-01-20T02:04:34;26.17;;;15.70;;
3819;SDS011;1925;51.356;9.530;2023-01-20T02:07:03;22.60;;;13.45;;
3819;SDS011;1925;51.356;9.530;2023-01-20T02:09:30;27.67;;;16.15;;
3819;SDS011;1925;51.356;9.530;2023-01-20T02:12:03;26.17;;;15.80;;
3819;SDS011;1925;51.356;9.530;2023-01-20T02:14:32;21.85;;;13.35;;
3819;SDS011;1925;51.356;9.530;2023-01-20T02:17:10;26.90;;;15.52;;
3819;SDS011;1925;51.356;9.530;2023-01-20T02:22:28;30.08;;;16.63;;
3819;SDS011;1925;51.356;9.530;2023-01-20T02:35:28;26.33;;;15.80;;
3819;SDS011;1925;51.356;9.530;2023-01-20T02:38:02;24.80;;;15.88;;
3819;SDS011;1925;51.356;9.530;2023-01-20T02:40:37;29.25;;;16.17;;
3819;SDS011;1925;51.356;9.530;2023-01-20T02:43:20;31.90;;;17.92;;
3819;SDS011;1925;51.356;9.530;2023-01-20T02:45:49;29.58;;;17.23;;
3819;SDS011;1925;51.356;9.530;2023-01-20T02:48:28;29.30;;;15.85;;
3819;SDS011;1925;51.356;9.530;2023-01-20T02:51:11;25.77;;;15.05;;
3819;SDS011;1925;51.356;9.530;2023-01-20T02:53:46;35.28;;;16.20;;
3819;SDS011;1925;51.356;9.530;2023-01-20T02:56:13;26.55;;;15.88;;
3819;SDS011;1925;51.356;9.530;2023-01-20T02:58:41;28.23;;;16.10;;
3819;SDS011;1925;51.356;9.530;2023-01-20T03:01:12;31.23;;;16.63;;
3819;SDS011;1925;51.356;9.530;2023-01-20T03:03:40;31.85;;;15.65;;
3819;SDS011;1925;51.356;9.530;2023-01-20T03:06:09;29.35;;;16.58;;
3819;SDS011;1925;51.356;9.530;2023-01-20T03:08:39;33.35;;;17.33;;
3819;SDS011;1925;51.356;9.530;2023-01-20T03:11:05;30.65;;;16.92;;
3819;SDS011;1925;51.356;9.530;2023-01-20T03:16:08;26.75;;;14.93;;
3819;SDS011;1925;51.356;9.530;2023-01-20T03:18:34;27.83;;;17.35;;
3819;SDS011;1925;51.356;9.530;2023-01-20T03:21:01;25.45;;;15.77;;
3819;SDS011;1925;51.356;9.530;2023-01-20T03:23:29;21.38;;;13.30;;
3819;SDS011;1925;51.356;9.530;2023-01-20T03:25:56;26.92;;;17.30;;
3819;SDS011;1925;51.356;9.530;2023-01-20T03:28:22;26.67;;;16.08;;
3819;SDS011;1925;51.356;9.530;2023-01-20T03:30:48;26.00;;;14.70;;
3819;SDS011;1925;51.356;9.530;2023-01-20T03:33:14;21.75;;;14.25;;
3819;SDS011;1925;51.356;9.530;2023-01-20T03:35:42;29.48;;;17.42;;
3819;SDS011;1925;51.356;9.530;2023-01-20T03:38:08;28.50;;;15.52;;
3819;SDS011;1925;51.356;9.530;2023-01-20T03:40:36;29.38;;;15.60;;
3819;SDS011;1925;51.356;9.530;2023-01-20T03:43:13;28.75;;;15.52;;
3819;SDS011;1925;51.356;9.530;2023-01-20T03:45:54;26.70;;;17.42;;
3819;SDS011;1925;51.356;9.530;2023-01-20T03:48:29;28.30;;;14.48;;
3819;SDS011;1925;51.356;9.530;2023-01-20T03:50:57;35.10;;;18.80;;
3819;SDS011;1925;51.356;9.530;2023-01-20T03:53:30;45.38;;;20.95;;
3819;SDS011;1925;51.356;9.530;2023-01-20T03:58:29;30.10;;;17.23;;
3819;SDS011;1925;51.356;9.530;2023-01-20T04:00:56;33.85;;;17.52;;
3819;SDS011;1925;51.356;9.530;2023-01-20T04:03:26;31.80;;;18.02;;
3819;SDS011;1925;51.356;9.530;2023-01-20T04:05:53;37.33;;;18.55;;
3819;SDS011;1925;51.356;9.530;2023-01-20T04:08:21;28.58;;;15.23;;
3819;SDS011;1925;51.356;9.530;2023-01-20T04:10:48;30.55;;;17.10;;
3819;SDS011;1925;51.356;9.530;2023-01-20T04:13:15;30.88;;;17.42;;
3819;SDS011;1925;51.356;9.530;2023-01-20T04:15:42;31.13;;;17.13;;
3819;SDS011;1925;51.356;9.530;2023-01-20T04:20:40;35.45;;;18.38;;
3819;SDS011;1925;51.356;9.530;2023-01-20T04:23:07;31.15;;;17.90;;
3819;SDS011;1925;51.356;9.530;2023-01-20T04:25:34;31.77;;;16.67;;
3819;SDS011;1925;51.356;9.530;2023-01-20T04:28:00;34.55;;;17.15;;
3819;SDS011;1925;51.356;9.530;2023-01-20T04:30:26;29.80;;;17.67;;
3819;SDS011;1925;51.356;9.530;2023-01-20T04:32:52;32.47;;;18.77;;
3819;SDS011;1925;51.356;9.530;2023-01-20T04:35:18;32.37;;;17.20;;
3819;SDS011;1925;51.356;9.530;2023-01-20T04:37:44;32.70;;;17.13;;
3819;SDS011;1925;51.356;9.530;2023-01-20T04:40:10;28.65;;;17.42;;
3819;SDS011;1925;51.356;9.530;2023-01-20T04:42:36;32.35;;;19.45;;
3819;SDS011;1925;51.356;9.530;2023-01-20T04:45:03;30.35;;;18.08;;
3819;SDS011;1925;51.356;9.530;2023-01-20T04:47:29;29.90;;;18.25;;
3819;SDS011;1925;51.356;9.530;2023-01-20T04:49:56;32.15;;;17.80;;
3819;SDS011;1925;51.356;9.530;2023-01-20T04:52:21;34.00;;;18.83;;
3819;SDS011;1925;51.356;9.530;2023-01-20T04:54:48;31.38;;;17.73;;
3819;SDS011;1925;51.356;9.530;2023-01-20T04:57:14;27.13;;;16.20;;
3819;SDS011;1925;51.356;9.530;2023-01-20T04:59:40;29.90;;;16.27;;
3819;SDS011;1925;51.356;9.530;2023-01-20T05:02:06;37.88;;;18.55;;
3819;SDS011;1925;51.356;9.530;2023-01-20T05:04:32;29.38;;;17.90;;
3819;SDS011;1925;51.356;9.530;2023-01-20T05:06:58;30.43;;;16.80;;
3819;SDS011;1925;51.356;9.530;2023-01-20T05:09:24;26.80;;;15.97;;
3819;SDS011;1925;51.356;9.530;2023-01-20T05:11:50;32.07;;;18.20;;
3819;SDS011;1925;51.356;9.530;2023-01-20T05:14:16;28.13;;;16.80;;
3819;SDS011;1925;51.356;9.530;2023-01-20T05:16:41;28.10;;;15.77;;
3819;SDS011;1925;51.356;9.530;2023-01-20T05:19:09;35.35;;;18.10;;
3819;SDS011;1925;51.356;9.530;2023-01-20T05:21:35;30.52;;;16.95;;
3819;SDS011;1925;51.356;9.530;2023-01-20T05:24:01;28.63;;;16.30;;
3819;SDS011;1925;51.356;9.530;2023-01-20T05:26:27;25.98;;;15.77;;
3819;SDS011;1925;51.356;9.530;2023-01-20T05:28:53;28.97;;;15.67;;
3819;SDS011;1925;51.356;9.530;2023-01-20T05:31:19;23.67;;;15.10;;
3819;SDS011;1925;51.356;9.530;2023-01-20T05:33:45;27.90;;;15.83;;
3819;SDS011;1925;51.356;9.530;2023-01-20T05:36:11;28.10;;;16.40;;
3819;SDS011;1925;51.356;9.530;2023-01-20T05:38:37;25.92;;;16.10;;
3819;SDS011;1925;51.356;9.530;2023-01-20T05:41:04;26.37;;;15.77;;
3819;SDS011;1925;51.356;9.530;2023-01-20T05:43:30;24.80;;;15.38;;
3819;SDS011;1925;51.356;9.530;2023-01-20T05:45:56;26.85;;;15.60;;
3819;SDS011;1925;51.356;9.530;2023-01-20T05:48:22;35.00;;;17.23;;
3819;SDS011;1925;51.356;9.530;2023-01-20T05:50:48;27.97;;;16.40;;
3819;SDS011;1925;51.356;9.530;2023-01-20T05:53:14;26.70;;;15.73;;
3819;SDS011;1925;51.356;9.530;2023-01-20T05:55:40;30.27;;;15.43;;
3819;SDS011;1925;51.356;9.530;2023-01-20T05:58:06;30.63;;;17.50;;
3819;SDS011;1925;51.356;9.530;2023-01-20T06:00:32;33.95;;;18.27;;
3819;SDS011;1925;51.356;9.530;2023-01-20T06:02:58;31.87;;;16.60;;
3819;SDS011;1925;51.356;9.530;2023-01-20T06:05:24;37.17;;;18.33;;
3819;SDS011;1925;51.356;9.530;2023-01-20T06:07:50;34.08;;;18.33;;
3819;SDS011;1925;51.356;9.530;2023-01-20T06:10:18;40.53;;;18.13;;
3819;SDS011;1925;51.356;9.530;2023-01-20T06:12:49;33.57;;;16.40;;
3819;SDS011;1925;51.356;9.530;2023-01-20T06:15:15;37.10;;;19.10;;
3819;SDS011;1925;51.356;9.530;2023-01-20T06:17:41;32.60;;;18.63;;
3819;SDS011;1925;51.356;9.530;2023-01-20T06:20:08;32.57;;;18.13;;
3819;SDS011;1925;51.356;9.530;2023-01-20T06:22:34;39.20;;;19.92;;
3819;SDS011;1925;51.356;9.530;2023-01-20T06:25:00;35.97;;;19.97;;
3819;SDS011;1925;51.356;9.530;2023-01-20T06:27:26;30.40;;;18.20;;
3819;SDS011;1925;51.356;9.530;2023-01-20T06:29:52;34.00;;;18.90;;
3819;SDS011;1925;51.356;9.530;2023-01-20T06:32:18;30.20;;;16.60;;
3819;SDS011;1925;51.356;9.530;2023-01-20T06:34:44;35.60;;;19.13;;
3819;SDS011;1925;51.356;9.530;2023-01-20T06:37:10;37.97;;;18.47;;
3819;SDS011;1925;51.356;9.530;2023-01-20T06:39:36;32.00;;;18.45;;
3819;SDS011;1925;51.356;9.530;2023-01-20T06:42:02;35.50;;;20.83;;
3819;SDS011;1925;51.356;9.530;2023-01-20T06:44:28;34.10;;;17.58;;
3819;SDS011;1925;51.356;9.530;2023-01-20T06:46:54;40.90;;;20.60;;
3819;SDS011;1925;51.356;9.530;2023-01-20T06:49:22;32.53;;;18.52;;
3819;SDS011;1925;51.356;9.530;2023-01-20T06:51:48;38.70;;;20.20;;
3819;SDS011;1925;51.356;9.530;2023-01-20T06:54:14;32.20;;;18.83;;
3819;SDS011;1925;51.356;9.530;2023-01-20T06:56:40;41.17;;;21.23;;
3819;SDS011;1925;51.356;9.530;2023-01-20T06:59:06;33.63;;;18.30;;
3819;SDS011;1925;51.356;9.530;2023-01-20T07:01:32;30.57;;;18.93;;
3819;SDS011;1925;51.356;9.530;2023-01-20T07:03:58;39.73;;;19.20;;
3819;SDS011;1925;51.356;9.530;2023-01-20T07:06:28;34.65;;;18.70;;
3819;SDS011;1925;51.356;9.530;2023-01-20T07:08:55;31.92;;;18.42;;
3819;SDS011;1925;51.356;9.530;2023-01-20T07:11:21;32.90;;;17.85;;
3819;SDS011;1925;51.356;9.530;2023-01-20T07:13:47;26.20;;;16.50;;
3819;SDS011;1925;51.356;9.530;2023-01-20T07:16:13;28.17;;;16.20;;
3819;SDS011;1925;51.356;9.530;2023-01-20T07:18:39;28.25;;;17.65;;
3819;SDS011;1925;51.356;9.530;2023-01-20T07:21:05;33.47;;;17.93;;
3819;SDS011;1925;51.356;9.530;2023-01-20T07:23:31;32.33;;;18.85;;
3819;SDS011;1925;51.356;9.530;2023-01-20T07:25:58;35.25;;;19.80;;
3819;SDS011;1925;51.356;9.530;2023-01-20T07:28:24;33.78;;;20.10;;
3819;SDS011;1925;51.356;9.530;2023-01-20T07:30:50;29.37;;;17.50;;
3819;SDS011;1925;51.356;9.530;2023-01-20T07:33:16;26.67;;;16.50;;
3819;SDS011;1925;51.356;9.530;2023-01-20T07:35:42;26.10;;;16.30;;
3819;SDS011;1925;51.356;9.530;2023-01-20T07:38:08;29.55;;;17.70;;
3819;SDS011;1925;51.356;9.530;2023-01-20T07:40:34;31.92;;;17.67;;
3819;SDS011;1925;51.356;9.530;2023-01-20T07:43:03;30.98;;;18.55;;
3819;SDS011;1925;51.356;9.530;2023-01-20T07:45:29;30.92;;;18.17;;
3819;SDS011;1925;51.356;9.530;2023-01-20T07:47:55;26.45;;;16.83;;
3819;SDS011;1925;51.356;9.530;2023-01-20T07:50:21;27.27;;;16.67;;
3819;SDS011;1925;51.356;9.530;2023-01-20T07:52:47;22.95;;;15.00;;
3819;SDS011;1925;51.356;9.530;2023-01-20T07:55:13;31.57;;;15.73;;
3819;SDS011;1925;51.356;9.530;2023-01-20T07:57:39;24.10;;;14.90;;
3819;SDS011;1925;51.356;9.530;2023-01-20T08:00:05;27.87;;;16.37;;
3819;SDS011;1925;51.356;9.530;2023-01-20T08:02:35;29.92;;;14.82;;
3819;SDS011;1925;51.356;9.530;2023-01-20T08:05:02;24.73;;;15.40;;
3819;SDS011;1925;51.356;9.530;2023-01-20T08:07:28;27.13;;;15.65;;
3819;SDS011;1925;51.356;9.530;2023-01-20T08:09:54;33.50;;;17.83;;
3819;SDS011;1925;51.356;9.530;2023-01-20T08:12:19;34.07;;;16.40;;
3819;SDS011;1925;51.356;9.530;2023-01-20T08:14:46;37.97;;;18.10;;
3819;SDS011;1925;51.356;9.530;2023-01-20T08:17:12;34.77;;;18.70;;
3819;SDS011;1925;51.356;9.530;2023-01-20T08:19:38;41.90;;;18.87;;
3819;SDS011;1925;51.356;9.530;2023-01-20T08:22:04;34.80;;;18.30;;
3819;SDS011;1925;51.356;9.530;2023-01-20T08:24:30;34.73;;;18.50;;
3819;SDS011;1925;51.356;9.530;2023-01-20T08:26:56;39.00;;;19.27;;
3819;SDS011;1925;51.356;9.530;2023-01-20T08:29:23;42.17;;;20.38;;
3819;SDS011;1925;51.356;9.530;2023-01-20T08:31:48;41.07;;;21.77;;
3819;SDS011;1925;51.356;9.530;2023-01-20T08:34:14;38.30;;;18.60;;
3819;SDS011;1925;51.356;9.530;2023-01-20T08:36:42;32.50;;;18.80;;
3819;SDS011;1925;51.356;9.530;2023-01-20T08:39:09;26.90;;;16.77;;
3819;SDS011;1925;51.356;9.530;2023-01-20T08:41:36;31.50;;;17.73;;
3819;SDS011;1925;51.356;9.530;2023-01-20T08:44:02;31.73;;;18.45;;
3819;SDS011;1925;51.356;9.530;2023-01-20T08:46:29;25.67;;;16.65;;
3819;SDS011;1925;51.356;9.530;2023-01-20T08:48:55;24.23;;;15.95;;
3819;SDS011;1925;51.356;9.530;2023-01-20T08:51:22;32.03;;;16.75;;
3819;SDS011;1925;51.356;9.530;2023-01-20T08:53:49;23.85;;;15.27;;
3819;SDS011;1925;51.356;9.530;2023-01-20T08:56:15;23.05;;;15.43;;
3819;SDS011;1925;51.356;9.530;2023-01-20T08:58:42;21.77;;;15.63;;
3819;SDS011;1925;51.356;9.530;2023-01-20T09:01:19;34.58;;;16.13;;
3819;SDS011;1925;51.356;9.530;2023-01-20T09:03:45;27.60;;;15.50;;
3819;SDS011;1925;51.356;9.530;2023-01-20T09:06:12;24.10;;;15.38;;
3819;SDS011;1925;51.356;9.530;2023-01-20T09:08:38;24.98;;;16.15;;
3819;SDS011;1925;51.356;9.530;2023-01-20T09:11:05;23.80;;;15.18;;
3819;SDS011;1925;51.356;9.530;2023-01-20T09:13:31;26.67;;;15.43;;
3819;SDS011;1925;51.356;9.530;2023-01-20T09:15:57;25.60;;;15.25;;
3819;SDS011;1925;51.356;9.530;2023-01-20T09:18:23;32.43;;;16.27;;
3819;SDS011;1925;51.356;9.530;2023-01-20T09:20:49;26.27;;;15.53;;
3819;SDS011;1925;51.356;9.530;2023-01-20T09:23:15;25.93;;;15.80;;
3819;SDS011;1925;51.356;9.530;2023-01-20T09:25:41;26.83;;;16.13;;
3819;SDS011;1925;51.356;9.530;2023-01-20T09:28:07;31.50;;;17.20;;
3819;SDS011;1925;51.356;9.530;2023-01-20T09:30:33;23.00;;;14.67;;
3819;SDS011;1925;51.356;9.530;2023-01-20T09:32:59;22.73;;;15.23;;
3819;SDS011;1925;51.356;9.530;2023-01-20T09:35:25;23.57;;;15.17;;
3819;SDS011;1925;51.356;9.530;2023-01-20T09:37:51;28.48;;;16.23;;
3819;SDS011;1925;51.356;9.530;2023-01-20T09:41:00;27.73;;;15.75;;
3819;SDS011;1925;51.356;9.530;2023-01-20T09:43:56;23.20;;;15.27;;
3819;SDS011;1925;51.356;9.530;2023-01-20T09:51:48;22.70;;;14.60;;
3819;SDS011;1925;51.356;9.530;2023-01-20T09:54:39;26.15;;;14.70;;
3819;SDS011;1925;51.356;9.530;2023-01-20T09:57:06;20.83;;;14.25;;
3819;SDS011;1925;51.356;9.530;2023-01-20T09:59:58;33.00;;;19.02;;
3819;SDS011;1925;51.356;9.530;2023-01-20T10:02:20;48.25;;;23.45;;
3819;SDS011;1925;51.356;9.530;2023-01-20T10:04:55;42.85;;;22.60;;
3819;SDS011;1925;51.356;9.530;2023-01-20T10:09:57;32.40;;;19.00;;
3819;SDS011;1925;51.356;9.530;2023-01-20T10:12:27;33.20;;;20.38;;
3819;SDS011;1925;51.356;9.530;2023-01-20T10:15:15;27.67;;;15.93;;
3819;SDS011;1925;51.356;9.530;2023-01-20T10:20:26;23.23;;;15.57;;
3819;SDS011;1925;51.356;9.530;2023-01-20T10:25:22;28.35;;;16.40;;
3819;SDS011;1925;51.356;9.530;2023-01-20T10:28:06;24.13;;;14.93;;
3819;SDS011;1925;51.356;9.530;2023-01-20T10:30:34;29.77;;;18.17;;
3819;SDS011;1925;51.356;9.530;2023-01-20T10:33:08;25.63;;;16.13;;
3819;SDS011;1925;51.356;9.530;2023-01-20T10:35:40;25.92;;;15.55;;
3819;SDS011;1925;51.356;9.530;2023-01-20T10:38:07;27.08;;;16.23;;
3819;SDS011;1925;51.356;9.530;2023-01-20T10:40:42;22.90;;;15.82;;
3819;SDS011;1925;51.356;9.530;2023-01-20T10:43:10;21.88;;;14.85;;
3819;SDS011;1925;51.356;9.530;2023-01-20T10:51:10;22.63;;;14.40;;
3819;SDS011;1925;51.356;9.530;2023-01-20T10:53:49;24.58;;;16.35;;
3819;SDS011;1925;51.356;9.530;2023-01-20T10:59:07;26.20;;;17.58;;
3819;SDS011;1925;51.356;9.530;2023-01-20T11:01:34;23.55;;;15.20;;
3819;SDS011;1925;51.356;9.530;2023-01-20T11:04:00;26.48;;;16.02;;
3819;SDS011;1925;51.356;9.530;2023-01-20T11:06:26;28.40;;;16.80;;
3819;SDS011;1925;51.356;9.530;2023-01-20T11:08:52;25.05;;;15.70;;
3819;SDS011;1925;51.356;9.530;2023-01-20T11:11:20;26.73;;;16.08;;
3819;SDS011;1925;51.356;9.530;2023-01-20T11:13:47;23.42;;;14.00;;
3819;SDS011;1925;51.356;9.530;2023-01-20T11:16:22;21.38;;;15.13;;
3819;SDS011;1925;51.356;9.530;2023-01-20T11:18:56;27.90;;;14.40;;
3819;SDS011;1925;51.356;9.530;2023-01-20T11:21:23;22.55;;;15.70;;
3819;SDS011;1925;51.356;9.530;2023-01-20T11:23:50;25.30;;;15.25;;
3819;SDS011;1925;51.356;9.530;2023-01-20T11:28:43;21.10;;;13.10;;
3819;SDS011;1925;51.356;9.530;2023-01-20T11:31:10;19.40;;;14.05;;
3819;SDS011;1925;51.356;9.530;2023-01-20T11:33:36;22.20;;;14.80;;
3819;SDS011;1925;51.356;9.530;2023-01-20T11:36:03;21.50;;;15.10;;
3819;SDS011;1925;51.356;9.530;2023-01-20T11:38:33;23.40;;;16.30;;
3819;SDS011;1925;51.356;9.530;2023-01-20T11:41:05;26.00;;;16.10;;
3819;SDS011;1925;51.356;9.530;2023-01-20T11:43:41;30.42;;;16.13;;
3819;SDS011;1925;51.356;9.530;2023-01-20T11:46:11;27.30;;;16.37;;
3819;SDS011;1925;51.356;9.530;2023-01-20T11:48:40;24.65;;;16.17;;
3819;SDS011;1925;51.356;9.530;2023-01-20T11:51:13;22.03;;;14.50;;
3819;SDS011;1925;51.356;9.530;2023-01-20T11:53:42;25.92;;;15.40;;
3819;SDS011;1925;51.356;9.530;2023-01-20T11:56:23;21.85;;;15.95;;
3819;SDS011;1925;51.356;9.530;2023-01-20T11:58:59;23.42;;;15.88;;
3819;SDS011;1925;51.356;9.530;2023-01-20T12:01:27;24.00;;;16.33;;
3819;SDS011;1925;51.356;9.530;2023-01-20T12:03:56;22.60;;;14.80;;
3819;SDS011;1925;51.356;9.530;2023-01-20T12:06:27;22.13;;;14.77;;
3819;SDS011;1925;51.356;9.530;2023-01-20T12:08:59;26.42;;;14.80;;
3819;SDS011;1925;51.356;9.530;2023-01-20T12:11:30;27.10;;;15.10;;
3819;SDS011;1925;51.356;9.530;2023-01-20T12:13:59;21.02;;;14.55;;
3819;SDS011;1925;51.356;9.530;2023-01-20T12:16:52;20.60;;;13.10;;
3819;SDS011;1925;51.356;9.530;2023-01-20T12:19:19;25.88;;;16.23;;
3819;SDS011;1925;51.356;9.530;2023-01-20T12:21:51;25.23;;;16.38;;
3819;SDS011;1925;51.356;9.530;2023-01-20T12:24:21;25.58;;;14.73;;
3819;SDS011;1925;51.356;9.530;2023-01-20T12:26:47;19.10;;;13.73;;
3819;SDS011;1925;51.356;9.530;2023-01-20T12:29:18;23.85;;;14.40;;
3819;SDS011;1925;51.356;9.530;2023-01-20T12:31:46;21.23;;;16.08;;
3819;SDS011;1925;51.356;9.530;2023-01-20T12:34:14;22.67;;;14.35;;
3819;SDS011;1925;51.356;9.530;2023-01-20T12:36:49;20.80;;;13.38;;
3819;SDS011;1925;51.356;9.530;2023-01-20T12:41:55;22.80;;;13.35;;
3819;SDS011;1925;51.356;9.530;2023-01-20T12:47:07;25.15;;;15.02;;
3819;SDS011;1925;51.356;9.530;2023-01-20T12:57:07;24.93;;;15.43;;
3819;SDS011;1925;51.356;9.530;2023-01-20T13:02:37;28.33;;;16.90;;
3819;SDS011;1925;51.356;9.530;2023-01-20T13:05:49;28.50;;;18.92;;
3819;SDS011;1925;51.356;9.530;2023-01-20T13:10:45;20.67;;;13.55;;
3819;SDS011;1925;51.356;9.530;2023-01-20T13:21:06;16.08;;;12.45;;
3819;SDS011;1925;51.356;9.530;2023-01-20T13:23:34;18.08;;;12.80;;
3819;SDS011;1925;51.356;9.530;2023-01-20T13:26:02;16.15;;;12.00;;
3819;SDS011;1925;51.356;9.530;2023-01-20T13:28:29;16.15;;;11.70;;
3819;SDS011;1925;51.356;9.530;2023-01-20T13:30:56;14.90;;;11.45;;
3819;SDS011;1925;51.356;9.530;2023-01-20T13:33:35;15.55;;;11.65;;
3819;SDS011;1925;51.356;9.530;2023-01-20T13:38:41;19.20;;;13.27;;
3819;SDS011;1925;51.356;9.530;2023-01-20T13:41:07;19.27;;;12.20;;
3819;SDS011;1925;51.356;9.530;2023-01-20T13:43:45;22.55;;;13.18;;
3819;SDS011;1925;51.356;9.530;2023-01-20T13:48:42;17.02;;;12.50;;
3819;SDS011;1925;51.356;9.530;2023-01-20T13:53:41;20.38;;;14.45;;
3819;SDS011;1925;51.356;9.530;2023-01-20T13:56:26;18.42;;;13.60;;
3819;SDS011;1925;51.356;9.530;2023-01-20T13:58:53;23.75;;;15.35;;
3819;SDS011;1925;51.356;9.530;2023-01-20T14:01:19;18.00;;;13.23;;
3819;SDS011;1925;51.356;9.530;2023-01-20T14:03:59;21.60;;;14.50;;
3819;SDS011;1925;51.356;9.530;2023-01-20T14:06:26;18.50;;;12.75;;
3819;SDS011;1925;51.356;9.530;2023-01-20T14:08:52;21.40;;;12.73;;
3819;SDS011;1925;51.356;9.530;2023-01-20T14:11:22;19.73;;;13.45;;
3819;SDS011;1925;51.356;9.530;2023-01-20T14:14:01;18.35;;;12.90;;
3819;SDS011;1925;51.356;9.530;2023-01-20T14:18:59;24.45;;;15.50;;
3819;SDS011;1925;51.356;9.530;2023-01-20T14:21:26;28.80;;;17.30;;
3819;SDS011;1925;51.356;9.530;2023-01-20T14:23:52;35.10;;;22.33;;
3819;SDS011;1925;51.356;9.530;2023-01-20T14:28:49;26.50;;;14.30;;
3819;SDS011;1925;51.356;9.530;2023-01-20T14:31:16;16.77;;;12.95;;
3819;SDS011;1925;51.356;9.530;2023-01-20T14:33:55;22.98;;;14.50;;
3819;SDS011;1925;51.356;9.530;2023-01-20T14:36:22;24.10;;;14.90;;
3819;SDS011;1925;51.356;9.530;2023-01-20T14:38:50;20.23;;;13.80;;
3819;SDS011;1925;51.356;9.530;2023-01-20T14:42:02;19.08;;;13.52;;
3819;SDS011;1925;51.356;9.530;2023-01-20T14:44:17;20.48;;;13.70;;
3819;SDS011;1925;51.356;9.530;2023-01-20T14:46:44;17.65;;;13.13;;
3819;SDS011;1925;51.356;9.530;2023-01-20T14:49:13;16.95;;;12.50;;
3819;SDS011;1925;51.356;9.530;2023-01-20T14:51:40;17.58;;;12.50;;
3819;SDS011;1925;51.356;9.530;2023-01-20T14:56:51;20.98;;;15.27;;
3819;SDS011;1925;51.356;9.530;2023-01-20T14:59:17;19.70;;;14.43;;
3819;SDS011;1925;51.356;9.530;2023-01-20T15:01:48;24.85;;;15.85;;
3819;SDS011;1925;51.356;9.530;2023-01-20T15:04:15;19.73;;;15.00;;
3819;SDS011;1925;51.356;9.530;2023-01-20T15:06:41;20.53;;;14.30;;
3819;SDS011;1925;51.356;9.530;2023-01-20T15:09:23;20.13;;;14.75;;
3819;SDS011;1925;51.356;9.530;2023-01-20T15:11:50;22.98;;;15.32;;
3819;SDS011;1925;51.356;9.530;2023-01-20T15:14:16;27.20;;;18.50;;
3819;SDS011;1925;51.356;9.530;2023-01-20T15:16:43;24.77;;;17.37;;
3819;SDS011;1925;51.356;9.530;2023-01-20T15:24:29;19.52;;;12.80;;
3819;SDS011;1925;51.356;9.530;2023-01-20T15:26:55;18.75;;;11.13;;
3819;SDS011;1925;51.356;9.530;2023-01-20T15:29:23;17.85;;;12.25;;
3819;SDS011;1925;51.356;9.530;2023-01-20T15:31:49;19.95;;;13.00;;
3819;SDS011;1925;51.356;9.530;2023-01-20T15:34:16;21.08;;;13.85;;
3819;SDS011;1925;51.356;9.530;2023-01-20T15:36:42;17.92;;;12.38;;
3819;SDS011;1925;51.356;9.530;2023-01-20T15:39:12;23.15;;;13.60;;
3819;SDS011;1925;51.356;9.530;2023-01-20T15:41:38;19.15;;;11.88;;
3819;SDS011;1925;51.356;9.530;2023-01-20T15:44:04;18.17;;;13.30;;
3819;SDS011;1925;51.356;9.530;2023-01-20T15:46:30;19.17;;;12.77;;
3819;SDS011;1925;51.356;9.530;2023-01-20T15:48:56;21.67;;;13.80;;
3819;SDS011;1925;51.356;9.530;2023-01-20T15:51:22;17.47;;;12.63;;
3819;SDS011;1925;51.356;9.530;2023-01-20T15:53:48;17.33;;;12.87;;
3819;SDS011;1925;51.356;9.530;2023-01-20T15:56:21;18.60;;;11.93;;
3819;SDS011;1925;51.356;9.530;2023-01-20T15:58:48;16.02;;;11.30;;
3819;SDS011;1925;51.356;9.530;2023-01-20T16:01:16;17.02;;;11.70;;
3819;SDS011;1925;51.356;9.530;2023-01-20T16:03:42;20.55;;;13.90;;
3819;SDS011;1925;51.356;9.530;2023-01-20T16:06:09;18.90;;;13.52;;
3819;SDS011;1925;51.356;9.530;2023-01-20T16:08:36;15.63;;;11.05;;
3819;SDS011;1925;51.356;9.530;2023-01-20T16:11:03;14.98;;;12.00;;
3819;SDS011;1925;51.356;9.530;2023-01-20T16:13:29;17.35;;;11.80;;
3819;SDS011;1925;51.356;9.530;2023-01-20T16:15:55;15.23;;;10.80;;
3819;SDS011;1925;51.356;9.530;2023-01-20T16:18:21;16.77;;;11.07;;
3819;SDS011;1925;51.356;9.530;2023-01-20T16:20:47;18.65;;;11.43;;
3819;SDS011;1925;51.356;9.530;2023-01-20T16:23:14;19.40;;;12.20;;
3819;SDS011;1925;51.356;9.530;2023-01-20T16:25:40;18.83;;;11.35;;
3819;SDS011;1925;51.356;9.530;2023-01-20T16:28:13;17.88;;;11.18;;
3819;SDS011;1925;51.356;9.530;2023-01-20T16:30:42;15.98;;;10.90;;